Airfield :
LOGIN :

Register | Disclaimer

   EN    FR    IT 

 










Legend :    VFR   Marginal VFR   IFR   Intensive IFR   Very Intensive IFR
Visi :
Ceiling :
>= 8 km
>= 3000ft
5 to 8 km
1000 to 3000 ft
1500m to 5 km
500 to 1000 ft
800 to 1500m
200 to 500 ft
< 800m
< 200 ft
Symbols :   Thunderstorms  Fog  Heavy snow  Heavy precipitations  Wind > 20 kt
SIGMETs :     Misc.  Thunderstorms  Icing  Turbulence  Mountain Waves  Volcanic Ashes






- Airport Elevation : 160 ft
- IATA code : LRT


LFRH - Lorient Lann Bihoue

CURRENT METAR :
  • 131100Z AUTO 29016KT 9999 FEW019 BKN035 BKN054 10/06 Q0997 BECMG 28020G30KT

EXPIRED METARs :
  • 131030Z AUTO 30011KT 270V330 9999 FEW026/// SCT036/// BKN045/// ///TCU 09/06 Q0997 BECMG 28020G30KT NSC
  • 131000Z AUTO 29017KT 9999 -RA BKN033 BKN040 BKN048 09/05 Q0996 BECMG 28020G30KT
  • 130930Z AUTO 29013G25KT 9999 BKN037 BKN044 BKN054 09/05 Q0995 NOSIG
  • 130900Z AUTO 29014KT 250V330 9999 FEW031 SCT037 08/05 Q0995 TEMPO 4500 RA BKN025TCU BECMG 28020G30KT
  • 130830Z AUTO 29014G25KT 9999 FEW034/// SCT046/// BKN076/// ///TCU 07/05 Q0995 TEMPO 29025G40KT 4500 RA BECMG NSC
  • 130800Z AUTO 29013KT 270V330 9999 -RA FEW020/// SCT027/// BKN034/// ///TCU 07/05 Q0994 TEMPO 29025G40KT 4500 RA

TAF TAF LFRH
Valid from the 13 at 06:00 until the 14 at 06:00 UTC


130500Z 1306/1406 30015G25KT 9999 SCT035 BKN040
TEMPO 1306/1310 29025G40KT 4500 RA SCT015
BECMG 1308/1310 28020G30KT CAVOK
BECMG 1314/1316 26025G40KT 4500 RA BKN008 OVC010
BECMG 1320/1322 6000 -RA BKN025
BECMG 1400/1402 28015G25KT CAVOK



MET'MAP, your aeronautical weather chart ! - Copyright ORBIFLY December 2007 - Disclaimer

ORBIFLY MET'MAP TEAM :

Programming & Development : Alexandra Zaïnal
Concept & original design : Baudouin d'Aumeries
Assistance for programming : Marc-Olivier Méhu
Technical & hardware support : Manuel Goepfert

Contact : metmap@orbifly.com




SOURCES & CREDITS :

   NOAA